Terminal Aerodrome Forecast
Issued by NWS

Home | Current Version | Previous Version | Text Only | Print | Product List | Glossary On
Versions: 1 2 3 4 5 6 7 8 9 10 11 12 13 14 15
000
FTUS43 KMQT 291400 AAB
TAFCMX
TAF AMD
KCMX 291431Z 2915/3012 14008KT P6SM -RA OVC030
     FM291600 12007KT 4SM -RA BR OVC006
     FM291900 17006KT 6SM BR VCSH SCT006 BKN020
     FM300000 22004KT 5SM -SHRA BR OVC020
     FM300400 34005KT 2SM SHRA BR OVC009=

USA.gov is the U.S. government's official web portal to all federal, state and local government web resources and services.